Time;durP1;ratioP1;P1;durP2;ratioP2;P2;SDS_P1;SDS_P2;PMS_P1;PMS_P2;Temp;Humidity;BMP_temperature;BMP_pressure;BME280_temperature;BME280_humidity;BME280_pressure;Samples;Min_cycle;Max_cycle;Signal;HPM_P1;HPM_P2
2023/04/14 00:00:42;;;;;;;16.13;5.90;;;4.60;1.00;;;;;;5041459;28;20287;-68
2023/04/14 00:03:09;;;;;;;11.63;5.73;;;4.50;1.00;;;;;;5031282;28;20219;-67
2023/04/14 00:05:36;;;;;;;19.43;6.70;;;4.50;1.00;;;;;;5025090;28;20223;-68
2023/04/14 00:08:03;;;;;;;10.53;5.67;;;4.50;1.00;;;;;;5039325;28;20667;-68
2023/04/14 00:10:31;;;;;;;9.73;5.90;;;4.50;1.00;;;;;;5014242;28;20238;-68
2023/04/14 00:13:00;;;;;;;12.63;5.73;;;4.50;1.00;;;;;;5029996;28;20187;-68
2023/04/14 00:15:27;;;;;;;13.97;6.47;;;4.50;1.00;;;;;;5054669;28;20612;-68
2023/04/14 00:17:54;;;;;;;12.90;5.50;;;4.40;1.00;;;;;;5052092;28;20187;-67
2023/04/14 00:20:21;;;;;;;13.23;5.80;;;4.40;1.00;;;;;;5031117;28;20188;-68
2023/04/14 00:22:48;;;;;;;12.67;6.43;;;4.30;1.00;;;;;;5031447;28;20188;-68
2023/04/14 00:25:15;;;;;;;12.77;5.87;;;4.30;1.00;;;;;;5046590;28;20195;-68
2023/04/14 00:27:42;;;;;;;12.23;5.90;;;4.30;1.00;;;;;;5050117;28;20282;-68
2023/04/14 00:30:10;;;;;;;10.13;6.03;;;4.30;1.00;;;;;;5045207;28;20214;-67
2023/04/14 00:32:38;;;;;;;13.87;6.57;;;4.30;1.00;;;;;;5029243;28;20188;-68
2023/04/14 00:35:05;;;;;;;11.13;6.17;;;4.40;1.00;;;;;;5028350;28;20547;-68
2023/04/14 00:37:32;;;;;;;13.93;6.13;;;4.40;1.00;;;;;;5016926;28;20199;-68
2023/04/14 00:39:59;;;;;;;12.30;6.43;;;4.40;1.00;;;;;;5028812;28;20192;-67
2023/04/14 00:42:26;;;;;;;12.20;5.80;;;4.40;1.00;;;;;;5034430;28;20206;-68
2023/04/14 00:44:53;;;;;;;16.60;6.53;;;4.40;1.00;;;;;;5029599;28;20207;-68
2023/04/14 00:47:21;;;;;;;11.73;5.50;;;4.40;1.00;;;;;;5048014;28;20344;-68
2023/04/14 00:49:50;;;;;;;17.10;6.00;;;4.40;1.00;;;;;;5025461;28;20194;-67
2023/04/14 00:52:19;;;;;;;13.47;5.33;;;4.30;1.00;;;;;;5024278;28;20191;-67
2023/04/14 00:54:47;;;;;;;10.57;5.97;;;4.30;1.00;;;;;;5020665;28;20710;-67
2023/04/14 00:57:14;;;;;;;8.23;5.23;;;4.30;1.00;;;;;;5029875;28;20243;-67
2023/04/14 00:59:41;;;;;;;12.37;6.10;;;4.20;1.00;;;;;;5026047;28;20563;-66
2023/04/14 01:02:08;;;;;;;13.97;5.67;;;4.20;1.00;;;;;;5036715;28;20202;-68
2023/04/14 01:04:35;;;;;;;13.23;6.37;;;4.10;1.00;;;;;;5032789;28;20199;-67
2023/04/14 01:07:20;;;;;;;20.27;7.03;;;4.00;1.00;;;;;;5033388;28;20211;-67
2023/04/14 01:09:47;;;;;;;14.33;6.17;;;3.90;1.00;;;;;;5036689;28;20235;-67
2023/04/14 01:12:53;;;;;;;13.37;6.80;;;3.80;1.00;;;;;;5028188;28;20192;-67
2023/04/14 01:15:39;;;;;;;11.47;5.97;;;3.80;1.00;;;;;;5000535;28;20673;-67
2023/04/14 01:18:11;;;;;;;14.20;6.30;;;3.80;1.00;;;;;;5039321;28;20184;-67
2023/04/14 01:20:47;;;;;;;13.43;6.20;;;3.80;1.00;;;;;;5006735;28;20208;-67
2023/04/14 01:23:25;;;;;;;9.90;6.03;;;3.80;1.00;;;;;;5014236;28;20223;-67
2023/04/14 01:26:28;;;;;;;9.73;5.80;;;3.80;1.00;;;;;;5016951;28;20220;-67
2023/04/14 01:29:20;;;;;;;13.83;6.97;;;3.80;1.00;;;;;;5001022;28;20243;-67
2023/04/14 01:31:56;;;;;;;15.50;6.50;;;3.80;1.00;;;;;;5005060;28;20184;-67
2023/04/14 01:34:32;;;;;;;12.93;6.30;;;3.70;1.00;;;;;;5013922;28;20234;-67
2023/04/14 01:37:07;;;;;;;16.13;6.77;;;3.60;1.00;;;;;;5027735;28;20200;-67
2023/04/14 01:39:38;;;;;;;12.17;6.57;;;3.50;1.00;;;;;;5008326;28;20196;-67
2023/04/14 01:42:13;;;;;;;14.43;6.13;;;3.50;1.00;;;;;;5007917;28;20290;-67
2023/04/14 01:44:43;;;;;;;12.23;5.87;;;3.50;1.00;;;;;;4996600;28;20258;-67
2023/04/14 01:47:13;;;;;;;10.07;5.57;;;3.50;1.00;;;;;;5010182;28;20312;-67
2023/04/14 01:49:42;;;;;;;17.03;6.20;;;3.50;1.00;;;;;;5034121;28;20184;-67
2023/04/14 01:52:12;;;;;;;11.33;6.17;;;3.50;1.00;;;;;;5012706;28;20214;-66
2023/04/14 01:54:41;;;;;;;12.47;6.50;;;3.60;1.00;;;;;;5001959;28;20201;-68
2023/04/14 01:57:11;;;;;;;10.77;5.80;;;3.60;1.00;;;;;;5011180;28;20683;-68
2023/04/14 01:59:41;;;;;;;11.77;5.80;;;3.70;1.00;;;;;;5020111;28;20214;-68
2023/04/14 02:02:12;;;;;;;15.33;7.00;;;3.70;1.00;;;;;;5009510;28;20254;-67
2023/04/14 02:04:41;;;;;;;11.20;5.70;;;3.70;1.00;;;;;;5011350;28;20694;-67
2023/04/14 02:07:11;;;;;;;9.00;5.87;;;3.60;1.00;;;;;;5009603;28;20216;-67
2023/04/14 02:09:40;;;;;;;10.80;5.63;;;3.60;1.00;;;;;;5024916;28;20180;-67
2023/04/14 02:12:10;;;;;;;9.10;5.53;;;3.50;1.00;;;;;;5011076;28;20215;-66
2023/04/14 02:14:40;;;;;;;13.43;5.73;;;3.60;1.00;;;;;;5013435;28;20181;-66
2023/04/14 02:17:10;;;;;;;10.70;5.40;;;3.50;1.00;;;;;;5004562;28;20554;-66
2023/04/14 02:19:38;;;;;;;16.27;6.50;;;3.60;1.00;;;;;;5016581;28;20600;-67
2023/04/14 02:22:05;;;;;;;9.60;5.83;;;3.60;1.00;;;;;;5005930;28;20284;-67
2023/04/14 02:24:32;;;;;;;11.77;6.00;;;3.70;1.00;;;;;;5007045;28;20203;-66
2023/04/14 02:27:15;;;;;;;9.20;5.17;;;3.80;1.00;;;;;;5013835;28;20721;-66
2023/04/14 02:29:50;;;;;;;8.73;6.23;;;3.80;1.00;;;;;;5030056;28;20187;-67
2023/04/14 02:32:23;;;;;;;9.63;6.20;;;3.90;1.00;;;;;;5012229;28;20214;-67
2023/04/14 02:34:59;;;;;;;13.77;5.60;;;4.00;1.00;;;;;;5003596;28;20192;-67
2023/04/14 02:37:34;;;;;;;10.10;5.13;;;4.00;1.00;;;;;;5018318;28;20235;-67
2023/04/14 02:40:11;;;;;;;13.93;5.77;;;4.00;1.00;;;;;;5007899;28;20203;-67
2023/04/14 02:42:43;;;;;;;11.03;5.10;;;4.00;1.00;;;;;;4997162;28;20279;-67
2023/04/14 02:45:20;;;;;;;10.03;5.93;;;4.00;1.00;;;;;;5008145;28;20275;-67
2023/04/14 02:47:53;;;;;;;11.43;5.77;;;3.90;1.00;;;;;;5011148;28;20270;-67
2023/04/14 02:50:21;;;;;;;10.97;6.07;;;3.80;1.00;;;;;;5008535;28;20706;-67
2023/04/14 02:53:02;;;;;;;12.53;5.70;;;3.70;1.00;;;;;;5010523;28;20228;-68
2023/04/14 02:55:35;;;;;;;10.80;6.73;;;3.70;1.00;;;;;;5012880;28;20200;-68
2023/04/14 02:58:02;;;;;;;10.47;5.57;;;3.60;1.00;;;;;;5011642;28;20215;-68
2023/04/14 03:00:34;;;;;;;11.67;5.67;;;3.60;1.00;;;;;;5011800;28;20227;-68
2023/04/14 03:03:03;;;;;;;13.97;5.70;;;3.60;1.00;;;;;;5022897;28;20216;-67
2023/04/14 03:05:31;;;;;;;14.27;5.83;;;3.60;1.00;;;;;;5009260;28;20202;-68
2023/04/14 03:08:07;;;;;;;11.90;5.80;;;3.60;1.00;;;;;;5007507;28;20227;-68
2023/04/14 03:10:36;;;;;;;9.00;5.83;;;3.60;1.00;;;;;;5020775;28;20223;-67
2023/04/14 03:13:05;;;;;;;12.67;6.03;;;3.60;1.00;;;;;;5047160;28;20674;-68
2023/04/14 03:15:34;;;;;;;13.03;5.40;;;3.70;1.00;;;;;;5048458;28;20195;-68
2023/04/14 03:18:01;;;;;;;10.63;5.47;;;3.70;1.00;;;;;;5041902;28;20274;-68
2023/04/14 03:20:30;;;;;;;11.73;5.43;;;3.70;1.00;;;;;;5027854;28;20780;-68
2023/04/14 03:23:04;;;;;;;8.73;5.63;;;3.70;1.00;;;;;;5023665;28;20195;-68
2023/04/14 03:25:39;;;;;;;12.93;5.70;;;3.70;1.00;;;;;;5021008;28;20513;-68
2023/04/14 03:28:14;;;;;;;7.47;5.33;;;3.60;1.00;;;;;;5034797;28;20575;-67
2023/04/14 03:30:48;;;;;;;10.47;5.40;;;3.60;1.00;;;;;;5018278;28;20192;-67
2023/04/14 03:33:19;;;;;;;12.30;5.47;;;3.50;1.00;;;;;;5030952;28;20190;-68
2023/04/14 03:35:47;;;;;;;11.40;5.73;;;3.50;1.00;;;;;;5031742;28;20801;-67
2023/04/14 03:38:19;;;;;;;9.60;5.37;;;3.50;1.00;;;;;;5013339;28;20606;-68
2023/04/14 03:40:47;;;;;;;8.40;5.10;;;3.50;1.00;;;;;;5037769;28;20219;-67
2023/04/14 03:43:21;;;;;;;10.93;5.03;;;3.50;1.00;;;;;;5027846;28;20246;-68
2023/04/14 03:45:55;;;;;;;9.83;5.13;;;3.40;1.00;;;;;;5024579;28;20570;-67
2023/04/14 03:48:25;;;;;;;9.93;5.67;;;3.30;1.00;;;;;;5026055;28;20209;-67
2023/04/14 03:50:53;;;;;;;9.70;5.10;;;3.20;1.00;;;;;;5036716;28;20252;-67
2023/04/14 03:53:21;;;;;;;9.27;5.57;;;3.30;1.00;;;;;;5029948;28;20624;-67
2023/04/14 03:55:50;;;;;;;8.23;5.03;;;3.30;1.00;;;;;;5004820;28;20200;-67
2023/04/14 03:58:19;;;;;;;11.53;5.43;;;3.20;1.00;;;;;;5039547;28;20666;-67
2023/04/14 04:00:50;;;;;;;7.67;5.37;;;3.20;1.00;;;;;;5017075;28;20675;-69
2023/04/14 04:03:18;;;;;;;11.50;5.27;;;3.20;1.00;;;;;;5034849;28;20266;-67
2023/04/14 04:05:46;;;;;;;9.83;5.57;;;3.10;1.00;;;;;;5022856;28;20188;-67
2023/04/14 04:08:14;;;;;;;12.63;6.03;;;3.00;1.00;;;;;;5029109;28;20207;-67
2023/04/14 04:10:43;;;;;;;9.67;5.83;;;2.90;1.00;;;;;;5033647;28;20265;-67
2023/04/14 04:13:16;;;;;;;11.67;5.93;;;2.90;1.00;;;;;;5026902;28;20214;-67
2023/04/14 04:15:46;;;;;;;12.87;6.23;;;2.90;1.00;;;;;;5019905;28;20202;-67
2023/04/14 04:18:17;;;;;;;9.83;5.13;;;2.90;1.00;;;;;;5018938;28;20192;-67
2023/04/14 04:20:45;;;;;;;11.70;6.23;;;2.80;1.00;;;;;;5018481;28;20243;-67
2023/04/14 04:23:15;;;;;;;8.93;6.07;;;2.80;1.00;;;;;;5040122;28;20206;-67
2023/04/14 04:25:43;;;;;;;10.63;5.63;;;2.70;1.00;;;;;;5013434;28;20195;-66
2023/04/14 04:28:26;;;;;;;9.20;6.00;;;2.70;1.00;;;;;;5029472;28;20219;-66
2023/04/14 04:30:57;;;;;;;14.47;6.57;;;2.70;1.00;;;;;;5020605;28;20718;-67
2023/04/14 04:33:28;;;;;;;8.47;6.00;;;2.80;1.00;;;;;;5028859;28;20200;-67
2023/04/14 04:35:59;;;;;;;7.40;5.33;;;2.70;1.00;;;;;;5013701;28;20274;-67
2023/04/14 04:38:32;;;;;;;11.20;5.53;;;2.70;1.00;;;;;;5025737;28;20249;-68
2023/04/14 04:40:59;;;;;;;8.00;6.20;;;2.70;1.00;;;;;;5027255;28;20188;-67
2023/04/14 04:43:28;;;;;;;10.47;6.60;;;2.70;1.00;;;;;;5025415;28;20287;-67
2023/04/14 04:46:14;;;;;;;17.23;6.43;;;2.70;1.00;;;;;;5045062;28;20183;-67
2023/04/14 04:48:41;;;;;;;8.97;6.60;;;2.60;1.00;;;;;;5035234;28;20207;-67
2023/04/14 04:51:08;;;;;;;12.40;7.20;;;2.70;1.00;;;;;;5032354;28;20223;-67
2023/04/14 04:53:35;;;;;;;12.50;6.33;;;2.70;1.00;;;;;;5028308;28;20187;-67
2023/04/14 04:56:03;;;;;;;11.07;6.40;;;2.70;1.00;;;;;;5023467;28;20183;-66
2023/04/14 04:58:30;;;;;;;12.70;6.97;;;2.80;1.00;;;;;;5032781;28;20242;-66
2023/04/14 05:00:57;;;;;;;14.53;7.60;;;2.90;1.00;;;;;;5026214;28;20581;-66
2023/04/14 05:03:24;;;;;;;14.10;7.63;;;2.90;1.00;;;;;;5029942;28;20222;-66
2023/04/14 05:05:51;;;;;;;29.87;24.03;;;2.90;1.00;;;;;;5012590;28;20199;-66
2023/04/14 05:08:18;;;;;;;25.23;14.93;;;2.90;1.00;;;;;;5027706;28;20610;-67
2023/04/14 05:10:45;;;;;;;16.17;8.83;;;3.00;1.00;;;;;;5053087;28;20307;-66
2023/04/14 05:13:12;;;;;;;13.37;8.30;;;3.10;1.00;;;;;;5050347;28;20203;-67
2023/04/14 05:15:39;;;;;;;17.07;7.57;;;3.10;1.00;;;;;;5048864;28;20194;-67
2023/04/14 05:18:06;;;;;;;11.63;7.60;;;3.20;1.00;;;;;;5010065;28;20214;-67
2023/04/14 05:20:33;;;;;;;14.90;7.50;;;3.30;1.00;;;;;;5033604;28;20195;-66
2023/04/14 05:23:01;;;;;;;13.67;7.00;;;3.40;1.00;;;;;;5027333;28;21249;-67
2023/04/14 05:25:28;;;;;;;10.87;6.87;;;3.50;1.00;;;;;;5056318;28;20659;-67
2023/04/14 05:27:55;;;;;;;12.07;6.90;;;3.60;1.00;;;;;;5031373;28;20231;-67
2023/04/14 05:30:22;;;;;;;10.63;6.33;;;3.70;1.00;;;;;;5051036;28;20200;-67
2023/04/14 05:32:50;;;;;;;10.63;6.33;;;3.70;1.00;;;;;;5026378;28;20192;-67
2023/04/14 05:35:17;;;;;;;10.07;6.77;;;3.80;1.00;;;;;;5030273;28;20206;-66
2023/04/14 05:37:44;;;;;;;12.57;6.43;;;3.90;1.00;;;;;;5051874;28;20203;-67
2023/04/14 05:40:11;;;;;;;11.90;5.50;;;3.90;1.00;;;;;;5029221;28;20298;-70
2023/04/14 05:42:40;;;;;;;9.90;5.23;;;4.00;1.00;;;;;;5010723;28;20199;-67
2023/04/14 05:45:08;;;;;;;13.00;5.43;;;4.20;1.00;;;;;;5039269;28;20202;-67
2023/04/14 05:47:36;;;;;;;15.30;5.00;;;4.30;1.00;;;;;;5018247;28;20238;-68
2023/04/14 05:50:03;;;;;;;10.53;4.47;;;4.50;1.00;;;;;;5021816;28;20282;-68
2023/04/14 05:52:30;;;;;;;8.87;4.60;;;4.60;1.00;;;;;;5044929;28;20254;-67
2023/04/14 05:54:57;;;;;;;10.87;5.27;;;4.90;1.00;;;;;;5046940;28;20576;-67
2023/04/14 05:57:24;;;;;;;6.97;4.40;;;5.20;1.00;;;;;;5043963;28;20199;-68
2023/04/14 05:59:51;;;;;;;10.03;3.67;;;7.60;1.00;;;;;;5046390;28;20551;-67
2023/04/14 06:02:18;;;;;;;8.03;3.43;;;9.80;1.00;;;;;;5046027;28;20211;-67
2023/04/14 06:04:46;;;;;;;7.07;3.20;;;11.90;1.00;;;;;;5031889;28;20286;-67
2023/04/14 06:07:13;;;;;;;7.00;3.40;;;13.50;1.00;;;;;;5042645;28;20216;-67
2023/04/14 06:09:41;;;;;;;6.43;2.70;;;13.80;1.00;;;;;;5041106;28;20193;-69
2023/04/14 06:12:09;;;;;;;17.97;9.23;;;14.40;1.00;;;;;;5048225;28;20188;-70
2023/04/14 06:14:35;;;;;;;7.38;3.45;;;15.30;1.00;;;;;;5049273;28;20195;-70
2023/04/14 06:17:02;;;;;;;7.47;3.17;;;15.90;1.00;;;;;;5019430;28;20206;-66
2023/04/14 06:19:30;;;;;;;5.32;2.80;;;17.00;1.00;;;;;;5048438;28;20202;-66
2023/04/14 06:21:56;;;;;;;7.93;2.80;;;18.20;1.00;;;;;;5028341;28;20214;-67
2023/04/14 06:24:24;;;;;;;7.82;3.60;;;17.70;1.00;;;;;;5049004;28;20675;-66
2023/04/14 06:26:51;;;;;;;7.97;3.15;;;17.00;1.00;;;;;;5043654;28;23199;-67
2023/04/14 06:29:18;;;;;;;7.88;3.22;;;16.70;1.00;;;;;;5043869;28;20291;-68
2023/04/14 06:31:45;;;;;;;6.38;2.80;;;18.10;1.00;;;;;;5037880;28;20678;-67
2023/04/14 06:34:12;;;;;;;6.50;3.03;;;19.20;1.00;;;;;;5028218;28;20199;-66
2023/04/14 06:36:40;;;;;;;5.18;2.88;;;19.20;1.00;;;;;;5014249;28;20196;-67
2023/04/14 06:39:06;;;;;;;9.50;3.13;;;19.70;1.00;;;;;;5035764;28;20183;-68
2023/04/14 06:41:34;;;;;;;7.57;2.95;;;19.70;1.00;;;;;;5011203;28;20664;-68
2023/04/14 06:44:03;;;;;;;6.40;3.10;;;18.10;1.00;;;;;;5017887;28;20307;-67
2023/04/14 06:46:30;;;;;;;7.95;3.70;;;20.80;1.00;;;;;;5049626;28;20502;-67
2023/04/14 06:48:57;;;;;;;8.95;3.72;;;18.90;1.00;;;;;;5045960;28;20212;-68
2023/04/14 06:51:26;;;;;;;11.45;4.93;;;22.80;1.00;;;;;;5041476;28;20207;-68
2023/04/14 06:53:53;;;;;;;16.08;5.93;;;22.20;1.00;;;;;;5034533;28;20207;-68
2023/04/14 06:56:20;;;;;;;15.32;6.65;;;22.50;1.00;;;;;;5023933;28;20368;-68
2023/04/14 06:58:47;;;;;;;20.02;7.70;;;20.30;1.00;;;;;;5047230;28;20238;-68
2023/04/14 07:01:14;;;;;;;16.45;7.60;;;23.10;1.00;;;;;;5047122;28;20608;-68
2023/04/14 07:03:42;;;;;;;16.77;7.15;;;24.50;1.00;;;;;;5039072;28;20226;-68
2023/04/14 07:06:10;;;;;;;16.15;7.50;;;25.30;1.00;;;;;;5006279;28;20257;-68
2023/04/14 07:08:39;;;;;;;19.15;8.00;;;22.30;1.00;;;;;;5052477;28;20203;-68
2023/04/14 07:11:09;;;;;;;20.52;8.50;;;25.00;1.00;;;;;;5026214;28;20235;-68
2023/04/14 07:13:37;;;;;;;15.38;7.55;;;23.50;1.00;;;;;;5016116;28;20216;-67
2023/04/14 07:16:06;;;;;;;15.70;7.28;;;22.10;1.00;;;;;;5019738;28;20291;-68
2023/04/14 07:18:34;;;;;;;12.40;5.47;;;24.60;1.00;;;;;;5032380;28;20303;-68
2023/04/14 07:21:01;;;;;;;11.63;5.25;;;27.30;1.00;;;;;;5029463;28;20679;-68
2023/04/14 07:23:28;;;;;;;15.18;6.50;;;29.00;1.00;;;;;;5028777;28;20723;-68
2023/04/14 07:25:57;;;;;;;13.95;5.72;;;27.00;1.00;;;;;;5017944;28;20204;-68
2023/04/14 07:28:25;;;;;;;9.88;3.67;;;25.40;1.00;;;;;;5016785;28;20591;-69
2023/04/14 07:30:53;;;;;;;10.68;3.35;;;28.50;1.00;;;;;;5033258;28;20233;-68
2023/04/14 07:33:21;;;;;;;13.45;3.85;;;28.20;1.00;;;;;;5021511;28;20195;-67
2023/04/14 07:35:49;;;;;;;7.22;3.38;;;25.10;1.00;;;;;;5033005;28;20192;-68
2023/04/14 07:38:28;;;;;;;7.32;3.50;;;28.10;1.00;;;;;;5018471;28;20192;-68
2023/04/14 07:40:55;;;;;;;10.57;3.40;;;28.40;1.00;;;;;;5007736;28;20719;-68
2023/04/14 07:43:22;;;;;;;7.47;3.25;;;30.80;1.00;;;;;;5021717;28;20200;-66
2023/04/14 07:45:51;;;;;;;7.70;3.08;;;31.90;1.00;;;;;;5020770;28;20720;-66
2023/04/14 07:48:20;;;;;;;9.20;3.28;;;30.70;1.00;;;;;;4999495;28;20737;-66
2023/04/14 07:50:48;;;;;;;8.57;3.63;;;30.90;1.00;;;;;;5023553;28;20218;-66
2023/04/14 07:53:15;;;;;;;7.35;3.80;;;32.70;1.00;;;;;;5024239;28;20206;-66
2023/04/14 07:55:43;;;;;;;7.50;3.28;;;32.40;1.00;;;;;;5024132;28;20247;-67
2023/04/14 07:58:11;;;;;;;9.77;4.03;;;31.80;1.00;;;;;;5022734;28;20200;-67
2023/04/14 08:00:41;;;;;;;11.43;3.30;;;31.00;1.00;;;;;;5004174;28;20201;-67
2023/04/14 08:03:08;;;;;;;9.45;3.45;;;32.10;1.00;;;;;;5007355;28;20707;-67
2023/04/14 08:05:36;;;;;;;7.40;3.53;;;33.30;1.00;;;;;;5026566;28;20254;-67
2023/04/14 08:08:03;;;;;;;9.60;3.97;;;31.10;1.00;;;;;;5023890;28;20224;-67
2023/04/14 08:10:31;;;;;;;7.35;3.83;;;31.80;1.00;;;;;;5016455;28;20615;-67
2023/04/14 08:12:57;;;;;;;7.70;3.47;;;32.80;1.00;;;;;;5043330;28;20654;-67
2023/04/14 08:15:27;;;;;;;8.25;3.75;;;32.70;1.00;;;;;;5044358;28;20306;-67
2023/04/14 08:17:54;;;;;;;6.03;3.22;;;31.40;1.00;;;;;;5041875;28;20231;-67
2023/04/14 08:20:22;;;;;;;8.27;3.70;;;32.20;1.00;;;;;;5036746;28;20199;-67
2023/04/14 08:22:49;;;;;;;10.75;3.72;;;29.00;1.00;;;;;;5040139;28;20208;-66
2023/04/14 08:25:15;;;;;;;9.30;4.10;;;28.10;1.00;;;;;;5036623;28;20663;-66
2023/04/14 08:27:43;;;;;;;8.73;3.70;;;30.40;1.00;;;;;;5025837;28;20549;-66
2023/04/14 08:30:10;;;;;;;10.38;3.70;;;28.90;1.00;;;;;;5023158;28;20299;-66
2023/04/14 08:32:37;;;;;;;10.32;3.70;;;27.60;1.00;;;;;;5041853;28;20187;-66
2023/04/14 08:35:05;;;;;;;10.23;3.88;;;26.70;1.00;;;;;;5040498;28;20671;-66
2023/04/14 08:37:52;;;;;;;9.15;3.60;;;25.10;1.00;;;;;;5040842;28;21085;-66
2023/04/14 08:40:22;;;;;;;10.10;3.67;;;26.50;1.00;;;;;;5039189;28;20203;-66
2023/04/14 08:42:49;;;;;;;8.73;3.50;;;26.70;1.00;;;;;;5039430;28;20688;-66
2023/04/14 08:45:18;;;;;;;6.03;2.97;;;26.80;1.00;;;;;;5041058;28;20207;-66
2023/04/14 08:47:50;;;;;;;7.32;3.38;;;29.60;1.00;;;;;;5040671;28;20540;-67
2023/04/14 08:50:21;;;;;;;11.70;3.47;;;33.10;1.00;;;;;;5042453;28;20211;-67
2023/04/14 08:52:52;;;;;;;8.25;3.53;;;32.20;1.00;;;;;;5040855;28;20275;-66
2023/04/14 08:55:19;;;;;;;8.88;3.30;;;29.60;1.00;;;;;;5040495;28;20191;-66
2023/04/14 08:57:47;;;;;;;7.32;3.45;;;30.10;1.00;;;;;;5029643;28;20188;-68
2023/04/14 09:00:15;;;;;;;6.47;3.53;;;27.70;1.00;;;;;;5033891;28;20199;-66
2023/04/14 09:02:43;;;;;;;10.05;3.65;;;26.90;1.00;;;;;;5005020;28;20330;-66
2023/04/14 09:05:11;;;;;;;7.63;3.45;;;27.30;1.00;;;;;;5035744;28;20188;-67
2023/04/14 09:07:41;;;;;;;10.50;3.55;;;27.50;1.00;;;;;;5036869;28;20196;-68
2023/04/14 09:10:10;;;;;;;8.85;3.72;;;26.70;1.00;;;;;;5036164;28;20327;-66
2023/04/14 09:12:38;;;;;;;11.18;3.17;;;29.30;1.00;;;;;;5036420;28;20199;-68
2023/04/14 09:15:08;;;;;;;8.63;3.42;;;27.20;1.00;;;;;;5036863;28;20187;-65
2023/04/14 09:17:36;;;;;;;6.30;3.05;;;27.90;1.00;;;;;;5019547;28;20744;-66
2023/04/14 09:20:03;;;;;;;7.60;3.30;;;29.00;1.00;;;;;;5038441;28;20230;-66
2023/04/14 09:22:52;;;;;;;8.38;3.42;;;30.40;1.00;;;;;;5039274;28;20202;-66
2023/04/14 09:25:19;;;;;;;7.13;3.75;;;30.60;1.00;;;;;;5021592;28;20716;-66
2023/04/14 09:27:50;;;;;;;6.72;2.72;;;32.50;1.00;;;;;;5040197;28;20550;-66
2023/04/14 09:30:17;;;;;;;6.00;2.70;;;30.00;1.00;;;;;;5021058;28;20211;-66
2023/04/14 09:32:44;;;;;;;7.18;2.88;;;32.70;1.00;;;;;;5037015;28;22978;-66
2023/04/14 09:35:13;;;;;;;7.28;3.05;;;31.30;1.00;;;;;;5023286;28;20651;-66
2023/04/14 09:37:45;;;;;;;10.20;3.13;;;27.10;1.00;;;;;;5022789;28;20237;-65
2023/04/14 09:40:32;;;;;;;9.80;3.33;;;27.20;1.00;;;;;;5045328;28;20194;-66
2023/04/14 09:42:59;;;;;;;7.85;2.90;;;31.60;1.00;;;;;;5020937;28;20198;-66
2023/04/14 09:45:42;;;;;;;6.38;3.33;;;34.40;1.00;;;;;;5039525;28;20721;-66
2023/04/14 09:48:11;;;;;;;8.13;2.88;;;33.80;1.00;;;;;;5040331;28;20251;-66
2023/04/14 09:51:05;;;;;;;8.02;2.80;;;32.70;1.00;;;;;;5041958;28;21137;-66
2023/04/14 09:53:37;;;;;;;9.05;3.05;;;30.40;1.00;;;;;;5044887;28;20270;-66
2023/04/14 09:56:09;;;;;;;8.27;2.65;;;31.30;1.00;;;;;;5035875;28;20295;-66
2023/04/14 09:58:43;;;;;;;6.22;2.53;;;28.30;1.00;;;;;;5021030;28;20206;-66
2023/04/14 10:01:16;;;;;;;10.32;3.42;;;28.10;1.00;;;;;;5041020;28;20198;-66
2023/04/14 10:03:48;;;;;;;7.65;2.75;;;27.00;1.00;;;;;;5047355;28;20276;-66
2023/04/14 10:06:16;;;;;;;11.15;3.28;;;25.80;1.00;;;;;;5044724;28;20687;-66
2023/04/14 10:08:46;;;;;;;6.43;3.00;;;26.30;1.00;;;;;;5027291;28;20321;-66
2023/04/14 10:11:14;;;;;;;8.45;3.08;;;28.70;1.00;;;;;;5019332;28;20306;-66
2023/04/14 10:13:42;;;;;;;7.70;2.92;;;30.10;1.00;;;;;;5023668;28;20636;-66
2023/04/14 10:16:09;;;;;;;5.97;2.97;;;27.80;1.00;;;;;;4992628;28;20203;-66
2023/04/14 10:18:37;;;;;;;11.88;3.35;;;27.00;1.00;;;;;;5007884;28;20211;-66
2023/04/14 10:21:05;;;;;;;7.88;3.53;;;26.80;1.00;;;;;;5001681;28;20200;-66
2023/04/14 10:23:32;;;;;;;10.40;3.35;;;25.50;1.00;;;;;;5021320;28;20188;-66
2023/04/14 10:26:00;;;;;;;9.57;3.72;;;26.80;1.00;;;;;;5021081;28;20506;-66
2023/04/14 10:28:29;;;;;;;10.20;3.38;;;25.90;1.00;;;;;;4989053;28;20336;-66
2023/04/14 10:31:00;;;;;;;12.18;3.58;;;25.40;1.00;;;;;;5024949;28;20588;-68
2023/04/14 10:33:28;;;;;;;13.45;4.18;;;23.90;1.00;;;;;;5026517;28;20193;-66
2023/04/14 10:36:01;;;;;;;10.02;3.30;;;22.70;1.00;;;;;;5023373;28;20303;-66
2023/04/14 10:38:45;;;;;;;9.82;3.50;;;22.70;1.00;;;;;;5006541;28;20236;-67
2023/04/14 10:41:12;;;;;;;9.23;3.25;;;24.70;1.00;;;;;;5005813;28;20546;-67
2023/04/14 10:43:40;;;;;;;11.60;3.85;;;27.90;1.00;;;;;;5023864;28;20703;-67
2023/04/14 10:46:08;;;;;;;9.13;3.50;;;24.50;1.00;;;;;;5025405;28;20595;-67
2023/04/14 10:48:38;;;;;;;11.45;3.33;;;23.40;1.00;;;;;;5025091;28;20215;-67
2023/04/14 10:51:08;;;;;;;7.43;3.08;;;26.10;1.00;;;;;;5024614;28;20200;-67
2023/04/14 10:53:54;;;;;;;9.10;3.30;;;25.50;1.00;;;;;;5026083;28;20192;-67
2023/04/14 10:56:23;;;;;;;7.38;3.05;;;24.10;1.00;;;;;;5026582;28;20206;-66
2023/04/14 10:58:58;;;;;;;7.63;3.13;;;22.90;1.00;;;;;;5021628;28;20199;-66
2023/04/14 11:01:31;;;;;;;9.90;3.30;;;24.00;1.00;;;;;;5008043;28;20224;-66
2023/04/14 11:04:16;;;;;;;9.38;3.35;;;23.60;1.00;;;;;;5025369;28;20683;-67
2023/04/14 11:06:47;;;;;;;11.10;3.53;;;24.80;1.00;;;;;;5024138;28;20221;-66
2023/04/14 11:09:29;;;;;;;8.55;3.55;;;23.40;1.00;;;;;;5022659;28;20302;-68
2023/04/14 11:12:04;;;;;;;10.82;3.15;;;24.00;1.00;;;;;;5024297;28;20267;-66
2023/04/14 11:14:34;;;;;;;9.43;3.70;;;26.40;1.00;;;;;;5024450;28;20570;-66
2023/04/14 11:17:04;;;;;;;8.55;3.13;;;26.10;1.00;;;;;;5006500;28;20208;-67
2023/04/14 11:19:32;;;;;;;7.28;3.38;;;25.30;1.00;;;;;;5006954;28;20567;-66
2023/04/14 11:21:59;;;;;;;8.40;3.00;;;25.60;1.00;;;;;;5024004;28;20234;-66
2023/04/14 11:24:27;;;;;;;6.47;2.90;;;26.10;1.00;;;;;;4984354;28;20258;-67
2023/04/14 11:26:55;;;;;;;7.28;3.15;;;27.00;1.00;;;;;;5019910;28;20262;-67
2023/04/14 11:29:22;;;;;;;7.22;2.83;;;27.10;1.00;;;;;;5022870;28;20696;-67
2023/04/14 11:32:01;;;;;;;8.45;2.75;;;27.80;1.00;;;;;;5005702;28;20200;-67
2023/04/14 11:34:28;;;;;;;5.53;2.75;;;29.00;1.00;;;;;;5001514;28;20844;-67
2023/04/14 11:36:55;;;;;;;8.48;3.30;;;29.30;1.00;;;;;;5001616;28;20201;-67
2023/04/14 11:39:24;;;;;;;10.18;3.55;;;29.80;1.00;;;;;;5001469;28;20196;-67
2023/04/14 11:41:51;;;;;;;7.72;3.22;;;28.20;1.00;;;;;;5017331;28;20627;-67
2023/04/14 11:44:19;;;;;;;6.75;3.05;;;26.50;1.00;;;;;;5012562;28;20203;-67
2023/04/14 11:46:46;;;;;;;10.02;3.35;;;25.00;1.00;;;;;;5018588;28;20231;-66
2023/04/14 11:49:13;;;;;;;6.63;3.30;;;24.60;1.00;;;;;;5021526;28;20306;-67
2023/04/14 11:51:40;;;;;;;9.48;3.70;;;24.80;1.00;;;;;;4987169;28;20656;-66
2023/04/14 11:54:10;;;;;;;11.30;3.85;;;25.20;1.00;;;;;;5004522;28;20323;-66
2023/04/14 11:56:38;;;;;;;9.13;2.88;;;25.80;1.00;;;;;;5004464;28;20659;-66
2023/04/14 11:59:05;;;;;;;9.50;3.17;;;27.00;1.00;;;;;;5018461;28;20200;-67
2023/04/14 12:01:32;;;;;;;7.28;3.05;;;26.40;1.00;;;;;;5021139;28;20196;-65
2023/04/14 12:03:59;;;;;;;8.13;3.20;;;26.90;1.00;;;;;;4995190;28;20767;-66
2023/04/14 12:06:26;;;;;;;9.60;2.97;;;23.50;1.00;;;;;;5005033;28;20922;-68
2023/04/14 12:08:55;;;;;;;8.52;3.10;;;22.00;1.00;;;;;;5021175;28;20283;-65
2023/04/14 12:11:22;;;;;;;9.35;3.20;;;22.20;1.00;;;;;;5017827;28;20936;-66
2023/04/14 12:13:51;;;;;;;8.85;2.92;;;22.50;1.00;;;;;;5043552;28;20294;-66
2023/04/14 12:16:18;;;;;;;13.02;3.22;;;22.80;1.00;;;;;;5022768;28;20293;-66
2023/04/14 12:18:46;;;;;;;7.13;2.92;;;23.50;1.00;;;;;;5043261;28;20533;-66
2023/04/14 12:21:18;;;;;;;5.80;2.90;;;22.80;1.00;;;;;;5023368;28;20221;-66
2023/04/14 12:23:48;;;;;;;7.07;3.03;;;23.00;1.00;;;;;;5043980;28;20219;-66
2023/04/14 12:26:16;;;;;;;6.88;2.50;;;24.30;1.00;;;;;;5041698;28;20462;-67
2023/04/14 12:28:43;;;;;;;9.10;3.08;;;24.80;1.00;;;;;;5023784;28;20220;-67
2023/04/14 12:31:10;;;;;;;7.28;3.30;;;24.00;1.00;;;;;;5040761;28;20666;-67
2023/04/14 12:33:38;;;;;;;8.13;3.30;;;22.50;1.00;;;;;;5024707;28;20211;-67
2023/04/14 12:36:08;;;;;;;5.88;2.88;;;22.20;1.00;;;;;;5020183;28;20191;-67
2023/04/14 12:38:35;;;;;;;7.97;2.85;;;21.40;1.00;;;;;;5035381;28;20200;-67
2023/04/14 12:41:03;;;;;;;9.10;3.60;;;21.00;1.00;;;;;;5042434;28;20202;-68
2023/04/14 12:43:35;;;;;;;6.65;2.83;;;20.50;1.00;;;;;;5042669;28;20192;-67
2023/04/14 12:46:04;;;;;;;7.93;2.97;;;21.10;1.00;;;;;;5022546;28;20195;-66
2023/04/14 12:48:44;;;;;;;8.55;3.75;;;21.10;1.00;;;;;;5039356;28;20195;-66
2023/04/14 12:51:13;;;;;;;10.23;3.00;;;22.00;1.00;;;;;;5042602;28;20536;-66
2023/04/14 12:53:42;;;;;;;9.43;3.40;;;22.40;1.00;;;;;;5020051;28;20188;-65
2023/04/14 12:56:15;;;;;;;7.95;2.92;;;22.10;1.00;;;;;;5040163;28;20188;-66
2023/04/14 12:58:47;;;;;;;8.15;3.15;;;20.40;1.00;;;;;;5041819;28;20195;-67
2023/04/14 13:01:18;;;;;;;10.48;3.53;;;19.60;1.00;;;;;;5023625;28;20184;-68
2023/04/14 13:03:53;;;;;;;9.63;4.15;;;19.20;1.00;;;;;;5039589;28;20226;-66
2023/04/14 13:06:22;;;;;;;7.80;2.97;;;19.20;1.00;;;;;;5041505;28;20241;-65
2023/04/14 13:08:51;;;;;;;9.93;3.72;;;19.30;1.00;;;;;;5013624;28;20211;-66